Time;durP1;ratioP1;P1;durP2;ratioP2;P2;SDS_P1;SDS_P2;PMS_P1;PMS_P2;Temp;Humidity;BMP_temperature;BMP_pressure;BME280_temperature;BME280_humidity;BME280_pressure;Samples;Min_cycle;Max_cycle;Signal;HPM_P1;HPM_P2
2022/04/15 00:01:15;;;;;;;8.48;6.18;;;8.40;80.80;;;;;;5038627;28;20393;-64
2022/04/15 00:03:41;;;;;;;7.03;6.20;;;8.40;80.80;;;;;;5035153;28;20442;-65
2022/04/15 00:06:08;;;;;;;9.60;5.97;;;8.40;80.90;;;;;;5049931;28;20055;-65
2022/04/15 00:08:35;;;;;;;10.57;5.45;;;8.40;80.80;;;;;;5051259;28;20072;-65
2022/04/15 00:11:01;;;;;;;9.57;6.45;;;8.40;81.00;;;;;;5049148;28;20061;-65
2022/04/15 00:13:29;;;;;;;8.45;5.80;;;8.40;81.00;;;;;;5045172;28;20143;-65
2022/04/15 00:15:57;;;;;;;12.07;6.20;;;8.30;81.10;;;;;;5042911;28;20043;-66
2022/04/15 00:18:24;;;;;;;10.00;6.55;;;8.30;81.00;;;;;;5048643;28;20405;-65
2022/04/15 00:20:51;;;;;;;6.82;5.70;;;8.30;81.10;;;;;;5036997;28;20465;-65
2022/04/15 00:23:18;;;;;;;10.98;6.60;;;8.30;81.10;;;;;;5045476;28;20053;-66
2022/04/15 00:25:44;;;;;;;11.73;6.63;;;8.30;81.30;;;;;;5043530;28;20073;-65
2022/04/15 00:28:10;;;;;;;7.55;6.00;;;8.20;81.30;;;;;;5031353;28;20103;-65
2022/04/15 00:30:35;;;;;;;12.02;6.97;;;8.20;81.30;;;;;;5033276;28;20554;-66
2022/04/15 00:33:01;;;;;;;7.60;6.60;;;8.20;81.20;;;;;;5035326;28;20037;-65
2022/04/15 00:35:27;;;;;;;7.78;6.40;;;8.20;81.30;;;;;;5048485;28;20082;-65
2022/04/15 00:37:52;;;;;;;12.95;6.75;;;8.20;81.20;;;;;;5047870;28;20081;-66
2022/04/15 00:40:18;;;;;;;13.93;7.88;;;8.10;81.30;;;;;;5031120;28;20049;-65
2022/04/15 00:42:44;;;;;;;7.93;6.47;;;8.10;81.40;;;;;;5034136;28;20044;-65
2022/04/15 00:45:09;;;;;;;12.35;7.90;;;8.10;81.40;;;;;;5048740;28;20482;-64
2022/04/15 00:47:47;;;;;;;7.40;6.65;;;8.10;81.60;;;;;;5048884;28;20044;-65
2022/04/15 00:50:14;;;;;;;12.23;6.38;;;8.10;81.60;;;;;;5046074;28;20494;-64
2022/04/15 00:52:44;;;;;;;10.35;7.72;;;8.00;81.60;;;;;;5031955;28;20040;-64
2022/04/15 00:55:12;;;;;;;8.07;7.25;;;7.90;81.60;;;;;;5049907;28;20044;-64
2022/04/15 00:57:41;;;;;;;7.35;6.65;;;7.90;81.70;;;;;;5032332;28;20073;-64
2022/04/15 01:00:09;;;;;;;7.97;6.97;;;7.90;81.80;;;;;;5047684;28;20036;-64
2022/04/15 01:02:36;;;;;;;9.93;6.80;;;8.00;81.90;;;;;;5048743;28;20080;-64
2022/04/15 01:05:04;;;;;;;7.45;6.45;;;7.90;81.80;;;;;;5048700;28;20048;-65
2022/04/15 01:07:34;;;;;;;9.75;6.43;;;7.90;81.90;;;;;;5048539;28;20094;-64
2022/04/15 01:10:01;;;;;;;12.23;6.70;;;7.90;81.80;;;;;;5030124;28;20085;-63
2022/04/15 01:12:29;;;;;;;7.20;6.38;;;7.80;81.60;;;;;;5043094;28;20045;-64
2022/04/15 01:15:06;;;;;;;8.13;6.65;;;7.70;81.80;;;;;;5031521;28;20268;-63
2022/04/15 01:17:35;;;;;;;7.88;7.00;;;7.80;81.70;;;;;;5042548;28;20061;-64
2022/04/15 01:20:05;;;;;;;7.05;6.45;;;7.70;81.70;;;;;;5047003;28;20044;-64
2022/04/15 01:22:49;;;;;;;10.05;6.47;;;7.70;81.70;;;;;;5033026;28;20103;-64
2022/04/15 01:25:17;;;;;;;8.88;6.78;;;7.80;81.70;;;;;;5026407;28;20056;-64
2022/04/15 01:27:45;;;;;;;8.07;6.72;;;7.70;81.70;;;;;;5031705;28;20037;-64
2022/04/15 01:30:18;;;;;;;9.45;6.65;;;7.70;81.70;;;;;;5031285;28;20041;-64
2022/04/15 01:32:44;;;;;;;9.90;6.72;;;7.80;81.70;;;;;;5045051;28;20094;-65
2022/04/15 01:35:12;;;;;;;9.48;7.07;;;7.70;81.70;;;;;;5030144;28;20056;-65
2022/04/15 01:37:39;;;;;;;7.50;6.82;;;7.80;81.60;;;;;;5047304;28;20409;-64
2022/04/15 01:40:06;;;;;;;8.27;6.40;;;7.90;81.60;;;;;;5048478;28;20413;-64
2022/04/15 01:42:33;;;;;;;7.97;6.10;;;7.90;81.50;;;;;;5049719;28;20167;-65
2022/04/15 01:44:59;;;;;;;9.00;6.55;;;7.90;81.50;;;;;;5045954;28;20037;-65
2022/04/15 01:47:25;;;;;;;6.38;5.78;;;7.90;81.50;;;;;;5034106;28;20449;-64
2022/04/15 01:49:50;;;;;;;6.80;6.22;;;7.90;81.50;;;;;;5044827;28;20044;-64
2022/04/15 01:52:17;;;;;;;6.97;6.03;;;7.90;81.40;;;;;;5048320;28;20080;-64
2022/04/15 01:54:42;;;;;;;6.10;5.50;;;7.90;81.40;;;;;;5048362;28;20458;-64
2022/04/15 01:57:08;;;;;;;9.35;6.30;;;7.90;81.40;;;;;;5036973;28;20131;-64
2022/04/15 01:59:34;;;;;;;9.13;6.00;;;8.00;81.40;;;;;;5030558;28;20046;-65
2022/04/15 02:01:59;;;;;;;6.57;5.97;;;8.00;81.50;;;;;;5046046;28;20039;-65
2022/04/15 02:04:26;;;;;;;7.90;6.18;;;7.90;81.60;;;;;;5048677;28;20041;-65
2022/04/15 02:06:52;;;;;;;6.88;6.18;;;8.00;81.60;;;;;;5037817;28;20041;-65
2022/04/15 02:09:18;;;;;;;6.57;5.88;;;8.00;81.50;;;;;;5045043;28;20095;-65
2022/04/15 02:11:44;;;;;;;6.30;5.80;;;8.00;81.60;;;;;;5038617;28;20053;-64
2022/04/15 02:14:12;;;;;;;6.82;6.05;;;8.10;81.50;;;;;;5046608;28;20061;-65
2022/04/15 02:16:39;;;;;;;16.45;6.35;;;8.10;81.40;;;;;;5034905;28;20060;-65
2022/04/15 02:19:05;;;;;;;7.65;6.00;;;8.10;81.40;;;;;;5048274;28;20060;-65
2022/04/15 02:21:30;;;;;;;6.65;5.60;;;8.10;81.30;;;;;;5047879;28;20053;-65
2022/04/15 02:23:56;;;;;;;12.75;6.63;;;8.20;81.30;;;;;;5063085;28;20078;-65
2022/04/15 02:26:22;;;;;;;6.90;5.93;;;8.20;81.40;;;;;;5037151;28;20420;-65
2022/04/15 02:28:47;;;;;;;11.25;5.70;;;8.20;81.30;;;;;;5031532;28;20049;-66
2022/04/15 02:31:13;;;;;;;6.28;5.68;;;8.20;81.40;;;;;;5032628;28;20044;-65
2022/04/15 02:33:38;;;;;;;6.47;5.88;;;8.30;81.40;;;;;;5044704;28;20497;-65
2022/04/15 02:36:04;;;;;;;6.40;5.90;;;8.30;81.30;;;;;;5039195;28;20490;-65
2022/04/15 02:38:30;;;;;;;9.15;6.47;;;8.40;81.40;;;;;;5040178;28;20045;-65
2022/04/15 02:40:56;;;;;;;8.40;6.28;;;8.40;81.40;;;;;;5047729;28;20041;-65
2022/04/15 02:43:25;;;;;;;9.02;6.03;;;8.50;81.50;;;;;;5047081;28;20041;-66
2022/04/15 02:45:51;;;;;;;9.90;6.90;;;8.50;81.50;;;;;;5035478;28;20504;-66
2022/04/15 02:48:17;;;;;;;6.53;5.57;;;8.60;81.40;;;;;;5048683;28;20083;-65
2022/04/15 02:50:45;;;;;;;8.18;6.20;;;8.60;81.50;;;;;;5048652;28;20037;-65
2022/04/15 02:53:11;;;;;;;9.25;5.88;;;8.60;81.40;;;;;;5047927;28;20128;-64
2022/04/15 02:55:37;;;;;;;6.20;5.63;;;8.60;81.60;;;;;;5034339;28;20084;-65
2022/04/15 02:58:02;;;;;;;9.40;5.53;;;8.60;81.70;;;;;;5041631;28;20069;-65
2022/04/15 03:00:28;;;;;;;6.32;5.45;;;8.70;81.70;;;;;;5044066;28;20045;-65
2022/04/15 03:02:54;;;;;;;8.38;5.60;;;8.70;81.60;;;;;;5044189;28;20045;-65
2022/04/15 03:05:19;;;;;;;7.43;5.78;;;8.70;81.50;;;;;;5047906;28;20045;-65
2022/04/15 03:07:45;;;;;;;7.55;6.18;;;8.80;81.60;;;;;;5044565;28;20049;-65
2022/04/15 03:10:10;;;;;;;11.60;6.05;;;8.80;81.70;;;;;;5036850;28;20060;-63
2022/04/15 03:12:37;;;;;;;8.95;5.45;;;8.80;81.60;;;;;;5030349;28;20464;-64
2022/04/15 03:15:05;;;;;;;10.15;5.78;;;8.90;81.60;;;;;;5034490;28;20544;-65
2022/04/15 03:17:33;;;;;;;5.60;5.10;;;9.00;81.60;;;;;;5046993;28;20061;-65
2022/04/15 03:20:02;;;;;;;7.75;5.68;;;9.00;81.60;;;;;;5042704;28;20437;-65
2022/04/15 03:22:28;;;;;;;11.50;5.50;;;9.00;81.80;;;;;;5042340;28;20050;-65
2022/04/15 03:24:54;;;;;;;7.13;6.40;;;9.10;81.70;;;;;;5033576;28;20525;-65
2022/04/15 03:27:20;;;;;;;11.05;6.40;;;9.10;81.80;;;;;;5037083;28;20033;-65
2022/04/15 03:29:45;;;;;;;10.07;5.50;;;9.10;81.60;;;;;;5035033;28;20096;-65
2022/04/15 03:32:11;;;;;;;8.10;5.03;;;9.10;81.70;;;;;;5049144;28;20486;-65
2022/04/15 03:34:36;;;;;;;8.07;5.55;;;9.10;81.60;;;;;;5041523;28;20041;-65
2022/04/15 03:37:03;;;;;;;8.88;5.40;;;9.10;81.60;;;;;;5040394;28;20136;-65
2022/04/15 03:39:29;;;;;;;7.60;5.80;;;9.10;81.60;;;;;;5051150;28;20045;-65
2022/04/15 03:41:55;;;;;;;8.88;5.55;;;9.20;81.70;;;;;;5039864;28;20111;-64
2022/04/15 03:44:20;;;;;;;10.57;5.30;;;9.20;81.60;;;;;;5043675;28;20037;-65
2022/04/15 03:46:46;;;;;;;9.25;5.80;;;9.20;81.60;;;;;;5042083;28;20045;-65
2022/04/15 03:49:11;;;;;;;8.73;5.93;;;9.30;81.60;;;;;;5050950;28;20545;-65
2022/04/15 03:51:37;;;;;;;9.63;6.50;;;9.20;81.50;;;;;;5051696;28;20049;-65
2022/04/15 03:54:03;;;;;;;10.95;6.35;;;9.20;81.50;;;;;;5040987;28;20084;-65
2022/04/15 03:56:29;;;;;;;6.82;4.75;;;9.20;81.60;;;;;;5050445;28;20362;-65
2022/04/15 03:58:54;;;;;;;7.35;4.72;;;9.20;81.40;;;;;;5051827;28;20037;-64
2022/04/15 04:01:20;;;;;;;5.97;4.57;;;9.20;81.20;;;;;;5051118;28;20402;-65
2022/04/15 04:03:45;;;;;;;5.07;3.92;;;9.10;81.00;;;;;;5049432;28;20046;-65
2022/04/15 04:06:11;;;;;;;5.53;4.45;;;9.10;80.90;;;;;;5041741;28;20045;-64
2022/04/15 04:08:37;;;;;;;4.95;4.05;;;9.10;80.70;;;;;;5044644;28;20502;-65
2022/04/15 04:11:03;;;;;;;8.05;5.20;;;9.10;80.50;;;;;;5031885;28;20049;-64
2022/04/15 04:13:28;;;;;;;6.70;5.07;;;9.10;80.60;;;;;;5032581;28;20057;-64
2022/04/15 04:15:54;;;;;;;7.35;5.10;;;9.10;80.60;;;;;;5046918;28;20037;-64
2022/04/15 04:18:21;;;;;;;7.57;5.40;;;9.10;80.60;;;;;;5050066;28;20049;-65
2022/04/15 04:20:48;;;;;;;7.30;5.07;;;9.10;80.70;;;;;;5035169;28;20051;-64
2022/04/15 04:23:14;;;;;;;5.50;5.00;;;9.10;80.70;;;;;;5043557;28;20454;-65
2022/04/15 04:25:39;;;;;;;6.93;5.13;;;9.10;80.80;;;;;;5047149;28;20094;-66
2022/04/15 04:28:05;;;;;;;8.95;5.88;;;9.10;80.80;;;;;;5045820;28;20057;-66
2022/04/15 04:30:31;;;;;;;6.10;5.03;;;9.10;80.70;;;;;;5048733;28;20037;-65
2022/04/15 04:32:59;;;;;;;7.40;5.28;;;9.10;80.90;;;;;;5047950;28;20041;-68
2022/04/15 04:35:25;;;;;;;9.30;4.70;;;9.10;80.90;;;;;;5051452;28;20094;-66
2022/04/15 04:37:51;;;;;;;7.13;4.53;;;9.10;80.80;;;;;;5050632;28;20045;-66
2022/04/15 04:40:17;;;;;;;6.13;4.93;;;9.10;80.60;;;;;;5051250;28;20037;-66
2022/04/15 04:42:45;;;;;;;4.85;4.35;;;9.10;80.60;;;;;;5035729;28;20550;-65
2022/04/15 04:45:10;;;;;;;8.68;6.00;;;9.10;80.80;;;;;;5031090;28;20050;-66
2022/04/15 04:47:40;;;;;;;6.82;5.22;;;9.10;80.80;;;;;;5040530;28;20034;-67
2022/04/15 04:50:08;;;;;;;7.05;5.93;;;9.20;80.80;;;;;;5050428;28;20049;-67
2022/04/15 04:52:35;;;;;;;7.43;5.53;;;9.20;80.80;;;;;;5047364;28;20048;-66
2022/04/15 04:55:02;;;;;;;10.98;6.47;;;9.20;80.80;;;;;;5051176;28;20044;-66
2022/04/15 04:57:28;;;;;;;6.47;5.72;;;9.20;80.90;;;;;;5048850;28;20870;-66
2022/04/15 04:59:53;;;;;;;6.80;5.00;;;9.20;80.70;;;;;;5050660;28;20053;-66
2022/04/15 05:02:19;;;;;;;5.50;4.75;;;9.20;80.60;;;;;;5047402;28;20311;-66
2022/04/15 05:04:44;;;;;;;6.50;5.85;;;9.10;80.50;;;;;;5050643;28;20077;-66
2022/04/15 05:07:10;;;;;;;6.78;5.82;;;9.10;80.50;;;;;;5049230;28;20080;-67
2022/04/15 05:09:41;;;;;;;10.05;6.18;;;9.10;80.50;;;;;;5039584;28;20418;-66
2022/04/15 05:12:08;;;;;;;11.23;7.45;;;9.20;80.50;;;;;;5034478;28;20231;-66
2022/04/15 05:14:33;;;;;;;8.60;7.53;;;9.20;80.50;;;;;;5031406;28;20510;-66
2022/04/15 05:16:59;;;;;;;10.55;9.10;;;9.20;80.60;;;;;;5038968;28;20076;-67
2022/04/15 05:19:24;;;;;;;11.52;8.98;;;9.10;80.80;;;;;;5048288;28;20060;-66
2022/04/15 05:21:50;;;;;;;13.93;9.63;;;9.10;80.80;;;;;;5039075;28;20041;-66
2022/04/15 05:24:15;;;;;;;10.27;8.48;;;9.10;80.90;;;;;;5031605;28;20194;-67
2022/04/15 05:26:41;;;;;;;10.55;8.95;;;9.10;81.10;;;;;;5042707;28;20052;-66
2022/04/15 05:29:08;;;;;;;13.02;8.27;;;9.00;81.10;;;;;;5048953;28;20043;-66
2022/04/15 05:31:34;;;;;;;8.93;7.88;;;9.00;81.20;;;;;;5048466;28;20052;-66
2022/04/15 05:34:00;;;;;;;10.23;7.85;;;9.00;81.30;;;;;;5048933;28;20041;-65
2022/04/15 05:36:26;;;;;;;13.57;6.97;;;9.10;81.40;;;;;;5046453;28;20049;-65
2022/04/15 05:38:52;;;;;;;9.60;7.13;;;9.10;81.30;;;;;;5049218;28;20045;-65
2022/04/15 05:41:18;;;;;;;8.38;7.38;;;9.00;81.30;;;;;;5039348;28;20395;-65
2022/04/15 05:43:43;;;;;;;8.27;6.82;;;9.00;81.60;;;;;;5047292;28;20382;-65
2022/04/15 05:46:10;;;;;;;9.77;6.80;;;9.00;81.50;;;;;;5048861;28;20036;-66
2022/04/15 05:48:36;;;;;;;8.93;6.25;;;8.90;81.50;;;;;;5049625;28;20138;-65
2022/04/15 05:51:02;;;;;;;10.30;6.97;;;8.90;81.50;;;;;;5044114;28;20045;-66
2022/04/15 05:53:27;;;;;;;8.50;6.90;;;8.80;81.60;;;;;;5041322;28;20125;-65
2022/04/15 05:55:53;;;;;;;7.45;6.70;;;8.80;81.80;;;;;;5045852;28;20040;-65
2022/04/15 05:58:18;;;;;;;8.63;6.18;;;8.80;81.80;;;;;;5044127;28;20041;-66
2022/04/15 06:00:45;;;;;;;7.00;6.30;;;8.80;81.90;;;;;;5032008;28;20037;-64
2022/04/15 06:03:11;;;;;;;7.18;6.55;;;8.90;81.90;;;;;;5041785;28;20044;-63
2022/04/15 06:05:37;;;;;;;6.70;5.97;;;8.90;82.00;;;;;;5040822;28;20041;-63
2022/04/15 06:08:02;;;;;;;6.63;5.40;;;8.90;81.90;;;;;;5042367;28;20033;-64
2022/04/15 06:10:30;;;;;;;6.13;5.55;;;8.90;81.70;;;;;;5041239;28;20435;-64
2022/04/15 06:13:04;;;;;;;5.93;5.25;;;8.80;81.80;;;;;;5038736;28;20076;-66
2022/04/15 06:15:33;;;;;;;5.40;4.90;;;8.80;81.80;;;;;;5023055;28;20041;-66
2022/04/15 06:18:01;;;;;;;8.55;5.40;;;8.90;81.70;;;;;;5044489;28;20150;-66
2022/04/15 06:20:27;;;;;;;9.73;5.05;;;8.80;81.60;;;;;;5028306;28;20063;-66
2022/04/15 06:22:54;;;;;;;5.22;4.50;;;8.90;81.60;;;;;;5038103;28;20069;-65
2022/04/15 06:25:19;;;;;;;9.52;5.22;;;8.90;81.40;;;;;;5039172;28;20473;-65
2022/04/15 06:27:45;;;;;;;5.38;4.85;;;8.80;81.20;;;;;;5045254;28;20104;-64
2022/04/15 06:30:11;;;;;;;5.95;4.38;;;8.90;81.20;;;;;;5042578;28;20782;-65
2022/04/15 06:32:38;;;;;;;4.45;4.05;;;8.90;81.10;;;;;;5048011;28;20103;-65
2022/04/15 06:35:04;;;;;;;5.40;3.67;;;8.90;80.90;;;;;;5047749;28;20041;-64
2022/04/15 06:37:30;;;;;;;3.53;3.22;;;8.90;80.70;;;;;;5047339;28;20051;-64
2022/04/15 06:39:56;;;;;;;3.90;3.50;;;8.90;80.50;;;;;;5029156;28;20176;-63
2022/04/15 06:42:23;;;;;;;4.45;3.75;;;8.90;80.30;;;;;;5036404;28;20102;-64
2022/04/15 06:44:49;;;;;;;3.42;3.13;;;8.90;80.40;;;;;;5046473;28;20040;-65
2022/04/15 06:47:16;;;;;;;4.55;3.70;;;9.00;80.10;;;;;;5038906;28;20124;-64
2022/04/15 06:49:42;;;;;;;4.90;3.78;;;9.00;79.90;;;;;;5047566;28;20696;-64
2022/04/15 06:52:08;;;;;;;4.20;3.80;;;9.00;79.80;;;;;;5036213;28;20075;-65
2022/04/15 06:54:34;;;;;;;3.97;3.53;;;9.10;79.90;;;;;;5046890;28;20083;-65
2022/04/15 06:57:00;;;;;;;3.25;2.95;;;9.10;79.80;;;;;;5044991;28;20537;-65
2022/04/15 06:59:25;;;;;;;5.22;2.83;;;9.10;79.60;;;;;;5045940;28;20119;-66
2022/04/15 07:01:51;;;;;;;4.03;3.03;;;9.10;79.30;;;;;;5046751;28;20378;-66
2022/04/15 07:04:17;;;;;;;5.28;4.57;;;9.10;79.20;;;;;;5047247;28;20037;-66
2022/04/15 07:06:43;;;;;;;6.53;5.05;;;9.10;79.10;;;;;;5046997;28;20051;-66
2022/04/15 07:09:08;;;;;;;8.50;4.80;;;9.10;79.30;;;;;;5042172;28;20045;-66
2022/04/15 07:11:34;;;;;;;5.90;4.50;;;9.10;79.30;;;;;;5045282;28;20072;-65
2022/04/15 07:14:00;;;;;;;7.90;4.15;;;9.00;79.60;;;;;;5048233;28;20053;-65
2022/04/15 07:16:25;;;;;;;7.13;4.68;;;9.00;79.60;;;;;;5045182;28;20124;-66
2022/04/15 07:18:56;;;;;;;5.72;4.45;;;8.90;79.40;;;;;;5034952;28;20044;-65
2022/04/15 07:21:22;;;;;;;6.05;5.45;;;8.80;79.70;;;;;;5047165;28;20052;-65
2022/04/15 07:23:48;;;;;;;7.53;6.28;;;8.90;79.80;;;;;;5047152;28;20087;-66
2022/04/15 07:26:14;;;;;;;8.18;5.53;;;8.90;79.40;;;;;;5046569;28;20048;-66
2022/04/15 07:28:40;;;;;;;8.27;6.50;;;8.80;79.60;;;;;;5047320;28;20037;-65
2022/04/15 07:31:05;;;;;;;10.70;6.63;;;8.70;79.70;;;;;;5047415;28;20490;-65
2022/04/15 07:33:31;;;;;;;8.45;6.57;;;8.70;79.90;;;;;;5046527;28;20065;-66
2022/04/15 07:35:57;;;;;;;8.85;7.13;;;8.80;80.00;;;;;;5029219;28;20040;-65
2022/04/15 07:38:23;;;;;;;10.35;8.27;;;8.80;80.00;;;;;;5046591;28;20045;-65
2022/04/15 07:40:49;;;;;;;9.63;7.85;;;8.80;80.00;;;;;;5046952;28;20535;-65
2022/04/15 07:43:15;;;;;;;13.23;9.52;;;8.80;80.00;;;;;;5045660;28;20040;-65
2022/04/15 07:45:40;;;;;;;11.65;8.88;;;8.80;80.00;;;;;;5047198;28;20037;-65
2022/04/15 07:48:06;;;;;;;12.38;8.30;;;8.90;79.90;;;;;;5041505;28;20052;-65
2022/04/15 07:50:32;;;;;;;12.07;8.90;;;8.90;79.80;;;;;;5047110;28;20037;-65
2022/04/15 07:52:59;;;;;;;13.63;9.65;;;9.00;79.70;;;;;;5042270;28;20103;-65
2022/04/15 07:55:28;;;;;;;11.48;8.68;;;9.00;79.30;;;;;;5044987;28;20547;-65
2022/04/15 07:57:54;;;;;;;16.00;9.80;;;9.00;78.90;;;;;;5046767;28;20436;-66
2022/04/15 08:00:20;;;;;;;15.35;10.40;;;8.90;79.10;;;;;;5045124;28;20049;-65
2022/04/15 08:02:46;;;;;;;15.40;9.35;;;9.00;79.20;;;;;;5035307;28;20029;-65
2022/04/15 08:05:13;;;;;;;15.60;11.15;;;9.00;79.40;;;;;;5046653;28;20130;-65
2022/04/15 08:07:39;;;;;;;14.70;9.93;;;9.10;79.20;;;;;;5047705;28;20037;-65
2022/04/15 08:10:06;;;;;;;14.73;10.55;;;9.10;79.40;;;;;;5043352;28;20110;-64
2022/04/15 08:12:32;;;;;;;15.20;10.57;;;9.10;79.50;;;;;;5048209;28;20516;-65
2022/04/15 08:14:59;;;;;;;14.32;10.45;;;9.30;79.40;;;;;;5045747;28;20048;-65
2022/04/15 08:17:24;;;;;;;13.15;9.52;;;9.30;79.10;;;;;;5044120;28;20459;-64
2022/04/15 08:19:50;;;;;;;15.45;10.32;;;9.40;78.90;;;;;;5046851;28;20049;-66
2022/04/15 08:22:16;;;;;;;15.55;10.70;;;9.50;78.80;;;;;;5040406;28;20463;-65
2022/04/15 08:24:45;;;;;;;15.32;9.82;;;9.60;78.50;;;;;;5046207;28;20033;-64
2022/04/15 08:27:11;;;;;;;14.75;9.63;;;9.60;78.50;;;;;;5047067;28;20053;-64
2022/04/15 08:29:39;;;;;;;14.45;10.50;;;9.70;78.40;;;;;;5041329;28;20485;-65
2022/04/15 08:32:08;;;;;;;20.27;8.68;;;9.80;78.00;;;;;;5049904;28;20099;-68
2022/04/15 08:34:38;;;;;;;17.48;9.77;;;9.90;77.80;;;;;;5045596;28;20072;-64
2022/04/15 08:37:04;;;;;;;15.82;10.20;;;9.90;77.80;;;;;;5043851;28;20045;-64
2022/04/15 08:39:30;;;;;;;14.65;8.95;;;10.00;77.70;;;;;;5042445;28;20045;-64
2022/04/15 08:41:58;;;;;;;17.90;8.85;;;10.10;77.60;;;;;;5048279;28;20033;-65
2022/04/15 08:44:25;;;;;;;15.25;8.20;;;10.10;77.50;;;;;;5046630;28;20045;-65
2022/04/15 08:46:50;;;;;;;19.02;8.82;;;10.10;77.30;;;;;;5045910;28;20041;-64
2022/04/15 08:49:19;;;;;;;12.90;7.82;;;10.30;76.70;;;;;;5036212;28;20102;-64
2022/04/15 08:51:49;;;;;;;12.93;8.18;;;10.30;76.50;;;;;;5040645;28;20080;-63
2022/04/15 08:54:15;;;;;;;10.93;7.40;;;10.30;76.50;;;;;;5034672;28;20057;-64
2022/04/15 08:56:42;;;;;;;13.18;8.68;;;10.30;76.30;;;;;;5031647;28;20102;-64
2022/04/15 08:59:08;;;;;;;13.95;7.18;;;10.30;76.20;;;;;;5043607;28;20051;-64
2022/04/15 09:01:34;;;;;;;13.05;7.53;;;10.40;75.60;;;;;;5047680;28;20485;-62
2022/04/15 09:04:00;;;;;;;11.07;7.38;;;10.50;75.70;;;;;;5027540;28;20106;-62
2022/04/15 09:06:32;;;;;;;13.52;7.78;;;10.50;75.40;;;;;;5046211;28;20045;-63
2022/04/15 09:09:08;;;;;;;;;;;10.40;75.50;;;;;;5048107;28;20033;-62
2022/04/15 09:11:36;;;;;;;9.93;5.85;;;10.30;75.50;;;;;;5028571;28;20439;-62
2022/04/15 09:14:13;;;;;;;10.73;6.38;;;10.40;76.00;;;;;;5032692;28;20044;-63
2022/04/15 09:16:40;;;;;;;13.82;6.28;;;10.40;75.90;;;;;;5047940;28;20124;-62
2022/04/15 09:19:08;;;;;;;11.75;6.40;;;10.50;76.00;;;;;;5045916;28;20037;-63
2022/04/15 09:21:34;;;;;;;13.02;7.57;;;10.50;75.90;;;;;;5049544;28;20048;-62
2022/04/15 09:24:00;;;;;;;12.75;6.43;;;10.60;76.10;;;;;;5049711;28;20071;-63
2022/04/15 09:26:26;;;;;;;13.27;6.45;;;10.60;75.80;;;;;;5050141;28;20087;-63
2022/04/15 09:28:53;;;;;;;11.50;5.53;;;10.60;75.70;;;;;;5049871;28;20124;-62
2022/04/15 09:31:20;;;;;;;12.02;6.10;;;10.70;75.50;;;;;;5050152;28;20051;-63
2022/04/15 09:33:58;;;;;;;11.52;6.15;;;10.80;75.20;;;;;;5050113;28;20049;-64
2022/04/15 09:36:37;;;;;;;14.07;5.82;;;10.80;75.30;;;;;;5049869;28;20049;-63
2022/04/15 09:39:14;;;;;;;15.30;6.13;;;10.90;75.20;;;;;;5033962;28;20048;-63
2022/04/15 09:41:50;;;;;;;9.70;4.82;;;11.00;75.20;;;;;;5045019;28;20052;-63
2022/04/15 09:44:16;;;;;;;13.88;5.53;;;11.10;73.80;;;;;;5047461;28;20044;-63
2022/04/15 09:46:44;;;;;;;11.30;4.03;;;11.10;72.40;;;;;;5049242;28;20127;-63
2022/04/15 09:49:10;;;;;;;7.57;4.70;;;11.00;72.70;;;;;;5050085;28;20094;-63
2022/04/15 09:51:52;;;;;;;9.57;4.50;;;11.00;72.70;;;;;;5050108;28;20041;-63
2022/04/15 09:54:28;;;;;;;8.57;4.22;;;11.10;71.90;;;;;;5048762;28;20102;-63
2022/04/15 09:56:59;;;;;;;6.65;3.65;;;11.10;72.00;;;;;;5047624;28;20037;-63
2022/04/15 09:59:27;;;;;;;10.85;4.43;;;11.10;72.20;;;;;;5049399;28;20037;-63
2022/04/15 10:01:58;;;;;;;7.72;4.00;;;11.20;71.60;;;;;;5049546;28;20473;-64
2022/04/15 10:04:25;;;;;;;9.43;3.65;;;11.20;71.60;;;;;;5049725;28;20037;-64
2022/04/15 10:06:51;;;;;;;5.93;3.78;;;11.20;71.30;;;;;;5049626;28;20563;-65
2022/04/15 10:09:17;;;;;;;8.48;4.53;;;11.30;71.40;;;;;;5049571;28;20072;-64
2022/04/15 10:11:47;;;;;;;8.27;3.17;;;11.20;71.20;;;;;;5048765;28;20045;-65
2022/04/15 10:14:15;;;;;;;8.45;3.70;;;11.30;71.00;;;;;;5049459;28;20051;-65
2022/04/15 10:16:45;;;;;;;5.93;3.47;;;11.40;70.40;;;;;;5049706;28;20379;-65
2022/04/15 10:19:11;;;;;;;7.88;4.20;;;11.40;70.10;;;;;;5048946;28;20057;-64
2022/04/15 10:21:42;;;;;;;8.75;3.10;;;11.30;70.70;;;;;;5049619;28;20041;-65
2022/04/15 10:24:09;;;;;;;8.05;3.85;;;11.40;70.40;;;;;;5049342;28;20506;-65
2022/04/15 10:26:43;;;;;;;4.80;3.38;;;11.40;70.30;;;;;;5049516;28;20091;-64
2022/04/15 10:29:09;;;;;;;4.82;3.20;;;11.40;70.10;;;;;;5048795;28;20124;-64
2022/04/15 10:31:46;;;;;;;7.43;3.50;;;11.50;69.00;;;;;;5049152;28;20048;-64
2022/04/15 10:34:16;;;;;;;6.05;3.20;;;11.50;69.40;;;;;;5049416;28;20044;-65
2022/04/15 10:36:53;;;;;;;7.03;3.47;;;11.50;69.90;;;;;;5049176;28;20059;-64
2022/04/15 10:39:22;;;;;;;5.40;3.22;;;11.60;69.90;;;;;;5049202;28;20088;-64
2022/04/15 10:41:51;;;;;;;5.65;3.85;;;11.70;70.20;;;;;;5047203;28;20067;-65
2022/04/15 10:44:35;;;;;;;4.82;3.03;;;11.90;70.20;;;;;;5049309;28;20512;-65
2022/04/15 10:47:16;;;;;;;7.32;2.97;;;12.00;69.60;;;;;;5049364;28;20608;-65
2022/04/15 10:49:58;;;;;;;8.30;3.38;;;12.10;69.70;;;;;;5048331;28;20048;-65
2022/04/15 10:52:25;;;;;;;5.60;3.20;;;12.10;69.60;;;;;;5046626;28;20072;-65
2022/04/15 10:54:52;;;;;;;4.47;2.47;;;12.20;69.40;;;;;;5040885;28;20044;-65
2022/04/15 10:57:20;;;;;;;5.20;2.67;;;12.20;69.10;;;;;;5032478;28;20569;-65
2022/04/15 11:02:45;;;;;;;3.55;2.35;;;12.30;67.90;;;;;;5029069;28;20052;-65
2022/04/15 11:05:36;;;;;;;4.88;2.90;;;12.40;68.10;;;;;;5046254;28;20059;-65
2022/04/15 11:08:09;;;;;;;6.65;2.67;;;12.50;67.90;;;;;;5048777;28;20651;-65
2022/04/15 11:10:45;;;;;;;3.78;2.40;;;12.50;68.10;;;;;;5047891;28;20051;-65
2022/04/15 11:13:24;;;;;;;4.15;2.22;;;12.50;67.80;;;;;;5047972;28;20525;-65
2022/04/15 11:15:55;;;;;;;4.63;2.38;;;12.60;67.50;;;;;;5048878;28;20049;-65
2022/04/15 11:18:21;;;;;;;5.10;2.72;;;12.60;67.80;;;;;;5048811;28;20397;-65
2022/04/15 11:20:46;;;;;;;6.70;2.55;;;12.70;67.70;;;;;;5047932;28;20041;-65
2022/04/15 11:23:12;;;;;;;4.45;2.75;;;12.70;67.30;;;;;;5044521;28;20049;-65
2022/04/15 11:25:42;;;;;;;6.72;3.63;;;12.80;67.20;;;;;;5040552;28;20045;-65
2022/04/15 11:28:09;;;;;;;6.85;3.28;;;12.80;66.60;;;;;;5047964;28;20064;-65
2022/04/15 11:30:35;;;;;;;5.18;2.60;;;12.80;66.60;;;;;;5045807;28;20082;-65
2022/04/15 11:33:06;;;;;;;5.85;3.30;;;13.00;66.40;;;;;;5028769;28;20046;-65
2022/04/15 11:35:34;;;;;;;5.10;2.67;;;13.00;65.80;;;;;;5036560;28;20043;-64
2022/04/15 11:38:13;;;;;;;14.00;3.58;;;12.90;65.80;;;;;;5044972;28;20044;-64
2022/04/15 11:40:43;;;;;;;4.65;3.08;;;12.90;65.80;;;;;;5048480;28;20060;-64
2022/04/15 11:43:10;;;;;;;8.75;3.08;;;12.90;66.10;;;;;;5050971;28;20110;-66
2022/04/15 11:45:40;;;;;;;5.95;3.08;;;13.00;66.10;;;;;;5048922;28;20041;-64
2022/04/15 11:48:15;;;;;;;11.00;3.63;;;13.00;66.00;;;;;;5032294;28;20056;-66
2022/04/15 11:50:41;;;;;;;5.07;3.10;;;13.10;65.30;;;;;;5036582;28;20043;-66
2022/04/15 11:53:07;;;;;;;7.95;3.50;;;13.00;64.50;;;;;;5030419;28;20140;-64
2022/04/15 11:55:34;;;;;;;6.18;3.45;;;13.00;64.70;;;;;;5044733;28;20055;-67
2022/04/15 11:58:00;;;;;;;10.70;3.83;;;12.90;64.40;;;;;;5045392;28;20029;-68
2022/04/15 12:00:26;;;;;;;7.82;3.78;;;12.80;65.00;;;;;;5045442;28;20037;-66
2022/04/15 12:03:03;;;;;;;12.23;4.95;;;12.80;65.20;;;;;;5039879;28;20047;-66
2022/04/15 12:05:29;;;;;;;9.85;4.55;;;12.80;66.10;;;;;;5034274;28;20502;-68
2022/04/15 12:07:54;;;;;;;7.32;4.72;;;12.80;66.10;;;;;;5037365;28;20060;-65
2022/04/15 12:10:23;;;;;;;10.75;4.70;;;12.70;66.00;;;;;;5039541;28;20577;-67
2022/04/15 12:12:50;;;;;;;11.65;5.45;;;12.80;66.10;;;;;;5047659;28;20441;-65
2022/04/15 12:15:16;;;;;;;8.57;5.40;;;12.60;66.10;;;;;;5037509;28;20048;-65
2022/04/15 12:17:42;;;;;;;10.07;5.20;;;12.50;66.10;;;;;;5045941;28;20041;-67
2022/04/15 12:20:09;;;;;;;11.20;4.60;;;12.50;66.70;;;;;;5031629;28;20137;-67
2022/04/15 12:22:36;;;;;;;12.73;4.93;;;12.50;66.80;;;;;;5049276;28;20040;-66
2022/04/15 12:25:15;;;;;;;6.55;4.30;;;12.50;66.90;;;;;;5053744;28;20514;-66
2022/04/15 12:27:44;;;;;;;14.38;5.18;;;12.60;66.80;;;;;;5052741;28;20166;-67
2022/04/15 12:30:16;;;;;;;13.13;5.47;;;12.70;66.50;;;;;;5047907;28;20130;-66
2022/04/15 12:32:42;;;;;;;9.02;4.00;;;12.70;66.70;;;;;;5047710;28;20059;-67
2022/04/15 12:35:12;;;;;;;12.68;4.95;;;12.60;65.90;;;;;;5048210;28;20079;-67
2022/04/15 12:37:39;;;;;;;7.90;4.72;;;12.60;66.30;;;;;;5049299;28;20049;-66
2022/04/15 12:40:30;;;;;;;9.70;5.57;;;12.60;67.00;;;;;;5035519;28;20569;-65
2022/04/15 12:43:08;;;;;;;10.93;4.90;;;12.60;67.20;;;;;;5048922;28;20127;-64
2022/04/15 12:45:50;;;;;;;10.95;5.28;;;12.50;67.00;;;;;;5048231;28;20048;-65
2022/04/15 12:48:15;;;;;;;;;;;12.60;66.80;;;;;;5047429;28;20497;-65
2022/04/15 12:50:45;;;;;;;11.10;5.00;;;12.40;66.70;;;;;;5048709;28;19932;-65
2022/04/15 12:53:14;;;;;;;9.77;4.53;;;12.30;67.80;;;;;;5049254;28;20377;-65
2022/04/15 12:55:41;;;;;;;8.43;5.68;;;12.30;67.90;;;;;;5046167;28;20049;-65